Quantico, VA

4:41 PM EDT on August 23, 2014 (GMT -0400)
Kerill Rd. | Change Station
CLOSE
Current Station
Personal Weather Station
Location: Triangle, VA
Elevation: 154 ft
Nearby Weather Stations

Elev 154 ft 38.55 °N, 77.31 °W | Updated 4 minutes ago

Rain
Rain Mist
67.6 °F
Feels Like 67.6 °F
N
1.0
Wind Variable Wind from NNE
Gusts 1.0 mph

Today
High -- | Low -- °F
--% Chance of Precip.
Yesterday
High -- | Low -- °F
Precip. -- in
6:30 AM 7:52 PM
Waning Crescent, 3% visible
Pressure 30.04 in
Visibility 2.5 miles
Clouds Few 1000 ft
Mostly Cloudy 5500 ft
Overcast 7000 ft
Dew Point 66 °F
Humidity 95%
Rainfall 0.91 in
Snow Depth Not available.
UV 2 out of 12
Pollen 7.10 out of 12
Ozone Good
PM2.5 Good
Flu Activity Not available.
METAR KNYG 231956Z 05011KT 2 1/2SM RA BR FEW010 BKN055 OVC070 22/19 A3004 RMK AO2 RAB49 SLP172 P0007 T02170194

More Conditions Fewer Conditions

Pressure 30.04 in
Visibility 2.5 miles
Clouds Few 1000 ft
Mostly Cloudy 5500 ft
Overcast 7000 ft
Dew Point 66 °F
Humidity 95%
Rainfall 0.91 in
Snow Depth Not available.
UV 2 out of 12
Pollen 7.10 out of 12
Ozone Good
PM2.5 Good
Flu Activity Not available.
METAR KNYG 231956Z 05011KT 2 1/2SM RA BR FEW010 BKN055 OVC070 22/19 A3004 RMK AO2 RAB49 SLP172 P0007 T02170194

More Conditions Fewer Conditions

10-Day Weather Forecast

Almanac

Astronomy

Aug. 23, 2014 Rise Set
Actual Time 6:30 AM EDT 7:52 PM EDT
Civil Twilight 6:02 AM EDT 8:20 PM EDT
Nautical Twilight 5:29 AM EDT 8:53 PM EDT
Astronomical Twilight 4:54 AM EDT 9:27 PM EDT
Moon 4:45 AM EDT 6:35 PM EDT
Length of Visible Light 14h 17m
Length of Day
13h 21m
Tomorrow will be 2m 18s shorter.
Waning Crescent, 3% of the Moon is Illuminated
Today
Waning Crescent
Aug 25
New
Sep 2
First Quarter
Sep 8
Full
Sep 15
Last Quarter

Today's Extremes

State Highs State Lows

Community

WunderPhotos

Upload Photos

1,746,622 photos uploaded!

WunderBlogs® & News

Nearby

Air Quality

  Air Quality AQ Index Pollutant
Yesterday Good
PM10
Yesterday Good
OZONE
Current Good
PM2.5
Current Good
OZONE
Saturday Good
PM2.5
Saturday Good
OZONE
Sunday Good
OZONE
Sunday Good
PM2.5
Monday Good
OZONE
Monday Good
PM2.5

Snow Depth

Station Depth Elevation
No new snow has been reported.

Earthquake Activity

City Distance Mag. Time & Date
No recent earthquake activity has been reported nearby.
Minimum magnitude displayed is 2.5.

Coastal Water Temperatures

Place Temperature
Washington, DC 79.0 °F
Lewisetta, VA 79.0 °F
Solomons Island, MD 80.1 °F

Nearby Weather Stations